createdAt,value
2022-07-31T00:02:24.549Z,91947.69
2022-07-31T00:04:56.971Z,91954.16
2022-07-31T00:07:29.399Z,91950.09
2022-07-31T00:10:01.815Z,91953.19
2022-07-31T00:12:35.479Z,91956.97
2022-07-31T00:15:09.470Z,91950.56
2022-07-31T00:17:42.903Z,91956.97
2022-07-31T00:20:16.946Z,91965.59
2022-07-31T00:22:49.823Z,91960.72
2022-07-31T00:25:22.246Z,91965.16
2022-07-31T00:27:55.282Z,91959.34
2022-07-31T00:30:27.651Z,91961.66
2022-07-31T00:33:00.058Z,91960.47
2022-07-31T00:35:32.602Z,91958.34
2022-07-31T00:38:26.189Z,91961.75
2022-07-31T00:40:57.394Z,91956.13
2022-07-31T00:43:31.662Z,91966.50
2022-07-31T00:46:04.157Z,91971.22
2022-07-31T00:48:37.121Z,91979.06
2022-07-31T00:51:10.415Z,91979.13
2022-07-31T00:53:42.798Z,91980.66
2022-07-31T00:56:15.228Z,91985.34
2022-07-31T00:58:48.339Z,91994.13
2022-07-31T01:01:21.303Z,91991.34
2022-07-31T01:03:54.152Z,91988.63
2022-07-31T01:06:26.691Z,91992.25
2022-07-31T01:08:59.298Z,91993.63
2022-07-31T01:11:41.791Z,91989.06
2022-07-31T01:14:19.247Z,91977.38
2022-07-31T01:16:53.861Z,91977.06
2022-07-31T01:19:42.346Z,91980.44
2022-07-31T01:22:32.913Z,91985.31
2022-07-31T01:25:14.277Z,91982.06
2022-07-31T01:28:02.734Z,91978.34
2022-07-31T01:31:05.309Z,91988.97
2022-07-31T01:33:51.992Z,91980.03
2022-07-31T01:36:30.687Z,91982.34
2022-07-31T01:39:04.144Z,91972.81
2022-07-31T01:41:41.628Z,91966.00
2022-07-31T01:44:17.518Z,91969.84
2022-07-31T01:46:53.055Z,91979.53
2022-07-31T01:49:28.399Z,91970.59
2022-07-31T01:52:04.988Z,91976.56
2022-07-31T01:54:38.674Z,91982.94
2022-07-31T01:57:11.903Z,91988.81
2022-07-31T01:59:55.602Z,91991.97
2022-07-31T02:02:50.831Z,91999.22
2022-07-31T02:05:27.744Z,92001.63
2022-07-31T02:08:01.286Z,92003.91
2022-07-31T02:10:35.799Z,91995.59
2022-07-31T02:13:11.223Z,91992.16
2022-07-31T02:15:45.626Z,91991.72
2022-07-31T02:18:22.695Z,91991.84
2022-07-31T02:21:10.443Z,91979.56
2022-07-31T02:23:43.118Z,91979.91
2022-07-31T02:26:16.662Z,91984.31
2022-07-31T02:28:49.716Z,91992.31
2022-07-31T02:31:24.032Z,91989.19
2022-07-31T02:33:57.242Z,91988.25
2022-07-31T02:36:33.876Z,91983.50
2022-07-31T02:39:08.091Z,91987.34
2022-07-31T02:41:41.603Z,91994.31
2022-07-31T02:44:15.419Z,91985.53
2022-07-31T02:47:01.756Z,91976.44
2022-07-31T02:49:35.381Z,91995.84
2022-07-31T02:52:09.102Z,91988.25
2022-07-31T02:54:43.722Z,91978.75
2022-07-31T02:57:17.116Z,91974.28
2022-07-31T02:59:49.743Z,91979.41
2022-07-31T03:02:22.250Z,91980.00
2022-07-31T03:04:55.371Z,91972.66
2022-07-31T03:07:30.847Z,91975.47
2022-07-31T03:10:03.877Z,91987.34
2022-07-31T03:12:50.886Z,91992.72
2022-07-31T03:15:26.391Z,91994.47
2022-07-31T03:18:00.535Z,91992.28
2022-07-31T03:20:44.029Z,91998.41
2022-07-31T03:23:16.657Z,91992.38
2022-07-31T03:26:00.113Z,91996.22
2022-07-31T03:28:33.683Z,92008.19
2022-07-31T03:31:07.508Z,92001.28
2022-07-31T03:33:39.936Z,92009.72
2022-07-31T03:36:13.042Z,92014.09
2022-07-31T03:38:50.457Z,92011.47
2022-07-31T03:41:36.346Z,92008.97
2022-07-31T03:44:09.359Z,92018.53
2022-07-31T03:46:41.991Z,92016.41
2022-07-31T03:49:15.007Z,92017.09
2022-07-31T03:51:49.243Z,92009.81
2022-07-31T03:54:22.203Z,92012.00
2022-07-31T03:57:02.979Z,92006.00
2022-07-31T03:59:37.207Z,92017.03
2022-07-31T04:02:13.601Z,92014.41
2022-07-31T04:04:52.727Z,92005.22
2022-07-31T04:07:27.008Z,92025.16
2022-07-31T04:09:59.659Z,92024.25
2022-07-31T04:12:32.255Z,92025.03
2022-07-31T04:15:05.618Z,92033.06
2022-07-31T04:17:38.142Z,92032.34
2022-07-31T04:20:12.136Z,92030.78
2022-07-31T04:22:45.358Z,92023.16
2022-07-31T04:25:33.835Z,92020.75
2022-07-31T04:28:29.735Z,92027.00
2022-07-31T04:31:02.222Z,92031.59
2022-07-31T04:33:46.361Z,92031.56
2022-07-31T04:36:29.910Z,92026.22
2022-07-31T04:39:05.996Z,92026.19
2022-07-31T04:41:39.156Z,92022.66
2022-07-31T04:44:11.627Z,92029.00
2022-07-31T04:47:16.179Z,92040.41
2022-07-31T04:49:52.582Z,92026.66
2022-07-31T04:52:25.053Z,92030.47
2022-07-31T04:54:58.165Z,92035.75
2022-07-31T04:57:32.599Z,92032.19
2022-07-31T05:00:06.273Z,92041.97
2022-07-31T05:02:39.706Z,92044.69
2022-07-31T05:05:12.915Z,92042.16
2022-07-31T05:07:47.634Z,92045.97
2022-07-31T05:10:43.359Z,92048.84
2022-07-31T05:13:16.144Z,92041.81
2022-07-31T05:15:49.166Z,92046.97
2022-07-31T05:18:21.601Z,92050.22
2022-07-31T05:21:13.203Z,92043.34
2022-07-31T05:24:22.605Z,92047.91
2022-07-31T05:27:14.449Z,92047.00
2022-07-31T05:29:48.019Z,92040.03
2022-07-31T05:32:21.264Z,92044.44
2022-07-31T05:34:53.719Z,92047.69
2022-07-31T05:37:26.863Z,92042.88
2022-07-31T05:39:59.329Z,92048.41
2022-07-31T05:42:52.956Z,92046.03
2022-07-31T05:45:47.856Z,92048.56
2022-07-31T05:48:20.316Z,92040.66
2022-07-31T05:50:53.419Z,92044.03
2022-07-31T05:53:26.160Z,92041.97
2022-07-31T05:56:17.297Z,92037.22
2022-07-31T05:58:55.225Z,92033.78
2022-07-31T06:01:27.885Z,92041.09
2022-07-31T06:04:00.364Z,92052.84
2022-07-31T06:06:37.806Z,92041.31
2022-07-31T06:09:10.547Z,92051.41
2022-07-31T06:11:47.310Z,92045.34
2022-07-31T06:14:20.473Z,92049.34
2022-07-31T06:17:05.370Z,92040.81
2022-07-31T06:19:39.162Z,92044.13
2022-07-31T06:22:11.648Z,92045.06
2022-07-31T06:24:44.091Z,92045.19
2022-07-31T06:27:34.049Z,92039.31
2022-07-31T06:30:10.488Z,92041.09
2022-07-31T06:32:43.205Z,92041.56
2022-07-31T06:35:16.035Z,92042.50
2022-07-31T06:38:11.344Z,92037.72
2022-07-31T06:41:03.760Z,92042.03
2022-07-31T06:43:43.924Z,92044.09
2022-07-31T06:46:48.698Z,92038.47
2022-07-31T06:49:47.855Z,92040.19
2022-07-31T06:52:20.380Z,92049.69
2022-07-31T06:54:52.859Z,92044.91
2022-07-31T06:57:25.284Z,92057.94
2022-07-31T06:59:57.857Z,92051.53
2022-07-31T07:02:30.938Z,92064.16
2022-07-31T07:05:06.470Z,92058.94
2022-07-31T07:07:40.180Z,92062.13
2022-07-31T07:10:14.367Z,92065.63
2022-07-31T07:13:13.083Z,92063.81
2022-07-31T07:15:46.879Z,92061.19
2022-07-31T07:18:21.462Z,92060.94
2022-07-31T07:20:56.714Z,92067.19
2022-07-31T07:23:30.998Z,92053.63
2022-07-31T07:26:21.221Z,92069.94
2022-07-31T07:28:54.131Z,92073.00
2022-07-31T07:31:26.543Z,92063.97
2022-07-31T07:34:20.846Z,92068.88
2022-07-31T07:36:53.375Z,92068.88
2022-07-31T07:39:29.178Z,92064.81
2022-07-31T07:42:02.381Z,92059.56
2022-07-31T07:44:35.100Z,92059.13
2022-07-31T07:47:07.984Z,92051.97
2022-07-31T07:49:41.135Z,92053.63
2022-07-31T07:52:30.353Z,92058.00
2022-07-31T07:55:26.342Z,92050.69
2022-07-31T07:58:17.438Z,92058.00
2022-07-31T08:01:16.326Z,92060.19
2022-07-31T08:03:53.525Z,92051.47
2022-07-31T08:06:26.598Z,92062.34
2022-07-31T08:08:59.017Z,92064.59
2022-07-31T08:11:49.803Z,92070.59
2022-07-31T08:14:30.411Z,92069.00
2022-07-31T08:17:28.594Z,92078.78
2022-07-31T08:20:00.969Z,92074.31
2022-07-31T08:22:34.149Z,92063.38
2022-07-31T08:25:07.271Z,92075.44
2022-07-31T08:27:48.589Z,92076.94
2022-07-31T08:30:21.212Z,92084.22
2022-07-31T08:32:54.385Z,92090.66
2022-07-31T08:35:34.712Z,92089.16
2022-07-31T08:38:08.035Z,92081.56
2022-07-31T08:40:56.691Z,92089.25
2022-07-31T08:44:02.668Z,92084.84
2022-07-31T08:46:23.841Z,92087.22
2022-07-31T08:48:57.879Z,92094.56
2022-07-31T08:51:31.988Z,92092.81
2022-07-31T08:54:42.352Z,92083.16
2022-07-31T08:57:15.458Z,92100.09
2022-07-31T08:59:51.678Z,92081.84
2022-07-31T09:02:24.241Z,92095.38
2022-07-31T09:05:16.142Z,92095.28
2022-07-31T09:07:48.627Z,92099.44
2022-07-31T09:10:23.767Z,92100.97
2022-07-31T09:12:57.212Z,92106.78
2022-07-31T09:15:33.607Z,92102.03
2022-07-31T09:18:18.923Z,92097.38
2022-07-31T09:20:57.741Z,92102.19
2022-07-31T09:23:31.415Z,92113.13
2022-07-31T09:26:06.712Z,92098.44
2022-07-31T09:28:40.947Z,92102.91
2022-07-31T09:31:13.644Z,92094.56
2022-07-31T09:34:00.938Z,92104.69
2022-07-31T09:36:42.198Z,92091.72
2022-07-31T09:39:51.835Z,92089.63
2022-07-31T09:42:45.656Z,92080.28
2022-07-31T09:45:29.780Z,92084.06
2022-07-31T09:48:03.785Z,92079.19
2022-07-31T09:50:36.259Z,92078.31
2022-07-31T09:53:08.619Z,92082.63
2022-07-31T09:55:49.627Z,92080.81
2022-07-31T09:58:23.715Z,92081.19
2022-07-31T10:00:57.319Z,92080.38
2022-07-31T10:03:30.971Z,92077.41
2022-07-31T10:06:05.333Z,92075.53
2022-07-31T10:08:39.471Z,92065.56
2022-07-31T10:11:39.246Z,92069.41
2022-07-31T10:14:22.080Z,92065.66
2022-07-31T10:16:58.711Z,92067.81
2022-07-31T10:20:06.602Z,92058.69
2022-07-31T10:22:58.715Z,92049.09
2022-07-31T10:25:38.487Z,92054.59
2022-07-31T10:28:11.663Z,92044.06
2022-07-31T10:30:45.611Z,92050.06
2022-07-31T10:33:42.644Z,92041.53
2022-07-31T10:36:36.903Z,92032.88
2022-07-31T10:39:35.562Z,92037.16
2022-07-31T10:42:29.256Z,92043.25
2022-07-31T10:45:06.335Z,92037.19
2022-07-31T10:48:11.415Z,92033.38
2022-07-31T10:51:08.928Z,92029.94
2022-07-31T10:54:14.831Z,92041.38
2022-07-31T10:57:24.235Z,92034.16
2022-07-31T11:00:17.419Z,92034.91
2022-07-31T11:03:16.846Z,92024.25
2022-07-31T11:06:08.023Z,92027.69
2022-07-31T11:08:58.926Z,92020.44
2022-07-31T11:12:04.124Z,92025.78
2022-07-31T11:14:51.605Z,92026.53
2022-07-31T11:18:21.160Z,92016.94
2022-07-31T11:20:31.352Z,92014.97
2022-07-31T11:23:05.612Z,92007.38
2022-07-31T11:25:38.311Z,92017.25
2022-07-31T11:28:13.247Z,92009.22
2022-07-31T11:30:50.499Z,92009.97
2022-07-31T11:33:41.614Z,92011.84
2022-07-31T11:36:19.356Z,92014.94
2022-07-31T11:38:55.418Z,92007.69
2022-07-31T11:41:29.097Z,92000.41
2022-07-31T11:44:10.516Z,91996.63
2022-07-31T11:46:42.929Z,91995.13
2022-07-31T11:49:20.941Z,92002.03
2022-07-31T11:52:30.622Z,91991.81
2022-07-31T11:55:09.153Z,91994.13
2022-07-31T11:57:52.185Z,91991.03
2022-07-31T12:00:27.315Z,91984.94
2022-07-31T12:03:02.570Z,91983.81
2022-07-31T12:05:44.023Z,91986.50
2022-07-31T12:08:17.266Z,91983.47
2022-07-31T12:10:52.062Z,91983.47
2022-07-31T12:13:25.985Z,91981.50
2022-07-31T12:16:00.269Z,91965.59
2022-07-31T12:18:46.170Z,91962.97
2022-07-31T12:21:19.900Z,91969.75
2022-07-31T12:23:53.429Z,91969.34
2022-07-31T12:26:27.706Z,91959.00
2022-07-31T12:29:01.440Z,91957.38
2022-07-31T12:31:44.679Z,91951.94
2022-07-31T12:34:27.505Z,91952.53
2022-07-31T12:37:01.415Z,91950.44
2022-07-31T12:39:53.810Z,91948.09
2022-07-31T12:42:33.173Z,91949.94
2022-07-31T12:45:17.883Z,91934.28
2022-07-31T12:47:54.019Z,91942.19
2022-07-31T12:50:28.649Z,91945.31
2022-07-31T12:53:03.283Z,91939.91
2022-07-31T12:55:36.512Z,91942.97
2022-07-31T12:58:08.948Z,91934.47
2022-07-31T13:00:41.348Z,91931.75
2022-07-31T13:03:13.891Z,91924.78
2022-07-31T13:05:50.326Z,91930.38
2022-07-31T13:08:24.450Z,91928.22
2022-07-31T13:10:57.550Z,91931.03
2022-07-31T13:13:29.970Z,91924.38
2022-07-31T13:16:02.403Z,91923.31
2022-07-31T13:18:36.951Z,91930.06
2022-07-31T13:21:09.389Z,91924.91
2022-07-31T13:23:41.803Z,91926.41
2022-07-31T13:26:14.914Z,91924.72
2022-07-31T13:28:47.351Z,91925.75
2022-07-31T13:31:19.786Z,91925.03
2022-07-31T13:33:52.148Z,91925.06
2022-07-31T13:36:25.055Z,91934.00
2022-07-31T13:38:57.535Z,91923.06
2022-07-31T13:41:31.419Z,91922.59
2022-07-31T13:44:04.143Z,91920.28
2022-07-31T13:46:36.585Z,91925.88
2022-07-31T13:49:09.678Z,91932.13
2022-07-31T13:51:42.140Z,91928.66
2022-07-31T13:54:15.744Z,91927.22
2022-07-31T13:56:48.800Z,91921.81
2022-07-31T13:59:22.034Z,91925.34
2022-07-31T14:02:03.259Z,91931.09
2022-07-31T14:04:46.071Z,91918.84
2022-07-31T14:07:18.529Z,91925.28
2022-07-31T14:09:55.392Z,91925.94
2022-07-31T14:12:28.706Z,91932.88
2022-07-31T14:15:03.566Z,91920.34
2022-07-31T14:17:36.121Z,91920.53
2022-07-31T14:20:09.492Z,91925.91
2022-07-31T14:22:42.575Z,91926.38
2022-07-31T14:25:14.958Z,91922.59
2022-07-31T14:27:49.587Z,91917.97
2022-07-31T14:30:22.363Z,91920.53
2022-07-31T14:32:55.399Z,91919.25
2022-07-31T14:35:27.957Z,91910.53
2022-07-31T14:38:03.917Z,91915.19
2022-07-31T14:40:37.015Z,91916.38
2022-07-31T14:43:10.990Z,91908.31
2022-07-31T14:45:51.625Z,91912.50
2022-07-31T14:48:24.523Z,91913.19
2022-07-31T14:50:57.225Z,91911.22
2022-07-31T14:53:29.625Z,91918.06
2022-07-31T14:56:03.987Z,91911.63
2022-07-31T14:58:57.299Z,91916.81
2022-07-31T15:01:30.428Z,91918.94
2022-07-31T15:04:03.868Z,91915.91
2022-07-31T15:06:51.606Z,91917.44
2022-07-31T15:09:28.123Z,91912.16
2022-07-31T15:12:01.840Z,91906.84
2022-07-31T15:14:35.486Z,91902.97
2022-07-31T15:17:08.212Z,91902.25
2022-07-31T15:19:40.816Z,91893.81
2022-07-31T15:22:17.020Z,91894.94
2022-07-31T15:24:50.264Z,91891.44
2022-07-31T15:27:24.068Z,91887.63
2022-07-31T15:30:05.641Z,91887.91
2022-07-31T15:32:40.029Z,91895.19
2022-07-31T15:35:13.555Z,91887.94
2022-07-31T15:37:46.003Z,91889.22
2022-07-31T15:40:18.419Z,91895.72
2022-07-31T15:42:52.004Z,91896.53
2022-07-31T15:45:25.075Z,91895.84
2022-07-31T15:47:57.522Z,91891.38
2022-07-31T15:50:29.907Z,91882.91
2022-07-31T15:53:02.564Z,91891.66
2022-07-31T15:55:35.018Z,91887.47
2022-07-31T15:58:07.370Z,91888.91
2022-07-31T16:00:40.481Z,91884.00
2022-07-31T16:03:17.771Z,91892.00
2022-07-31T16:05:55.842Z,91886.72
2022-07-31T16:08:35.672Z,91889.38
2022-07-31T16:11:08.407Z,91885.56
2022-07-31T16:13:40.882Z,91885.19
2022-07-31T16:16:13.947Z,91885.25
2022-07-31T16:18:46.351Z,91886.81
2022-07-31T16:21:18.766Z,91894.00
2022-07-31T16:23:51.287Z,91896.34
2022-07-31T16:26:23.688Z,91894.47
2022-07-31T16:28:56.087Z,91894.06
2022-07-31T16:31:30.584Z,91894.81
2022-07-31T16:34:03.318Z,91895.97
2022-07-31T16:36:35.801Z,91907.78
2022-07-31T16:39:20.023Z,91899.03
2022-07-31T16:41:54.885Z,91910.09
2022-07-31T16:44:27.651Z,91908.59
2022-07-31T16:47:00.731Z,91915.03
2022-07-31T16:49:36.940Z,91915.03
2022-07-31T16:52:09.603Z,91915.06
2022-07-31T16:54:41.998Z,91913.53
2022-07-31T16:57:14.627Z,91917.34
2022-07-31T16:59:56.619Z,91920.41
2022-07-31T17:02:30.682Z,91924.59
2022-07-31T17:05:03.387Z,91932.97
2022-07-31T17:07:35.856Z,91926.09
2022-07-31T17:10:09.055Z,91942.84
2022-07-31T17:12:41.434Z,91934.50
2022-07-31T17:15:13.845Z,91942.84
2022-07-31T17:17:47.096Z,91947.41
2022-07-31T17:20:22.732Z,91943.59
2022-07-31T17:22:55.119Z,91943.59
2022-07-31T17:25:27.680Z,91939.00
2022-07-31T17:28:00.069Z,91948.13
2022-07-31T17:30:32.930Z,91957.22
2022-07-31T17:33:06.033Z,91956.81
2022-07-31T17:35:38.563Z,91962.53
2022-07-31T17:38:10.943Z,91953.78
2022-07-31T17:40:44.366Z,91964.41
2022-07-31T17:43:16.881Z,91961.34
2022-07-31T17:46:05.910Z,91962.09
2022-07-31T17:48:42.328Z,91960.91
2022-07-31T17:51:14.735Z,91973.44
2022-07-31T17:53:55.514Z,91967.28
2022-07-31T17:56:31.759Z,91970.69
2022-07-31T17:59:05.063Z,91971.78
2022-07-31T18:01:37.547Z,91969.81
2022-07-31T18:04:10.819Z,91974.31
2022-07-31T18:06:52.797Z,91977.66
2022-07-31T18:09:27.867Z,91979.03
2022-07-31T18:12:00.317Z,91984.19
2022-07-31T18:14:32.740Z,91979.97
2022-07-31T18:17:05.390Z,91983.34
2022-07-31T18:19:38.492Z,91990.16
2022-07-31T18:22:11.831Z,91990.44
2022-07-31T18:24:44.225Z,91987.34
2022-07-31T18:27:17.150Z,91993.66
2022-07-31T18:29:56.202Z,91996.28
2022-07-31T18:32:30.279Z,91997.66
2022-07-31T18:35:04.412Z,92002.94
2022-07-31T18:37:37.014Z,92002.41
2022-07-31T18:40:10.354Z,92006.13
2022-07-31T18:42:43.107Z,92011.72
2022-07-31T18:45:15.755Z,92007.50
2022-07-31T18:47:49.810Z,92012.72
2022-07-31T18:50:58.409Z,92016.75
2022-07-31T18:53:15.632Z,92020.13
2022-07-31T18:55:48.062Z,92022.59
2022-07-31T18:58:20.485Z,92026.59
2022-07-31T19:00:55.084Z,92027.63
2022-07-31T19:03:29.217Z,92034.72
2022-07-31T19:06:02.909Z,92030.03
2022-07-31T19:08:35.350Z,92031.38
2022-07-31T19:11:07.855Z,92041.69
2022-07-31T19:13:40.320Z,92037.56
2022-07-31T19:16:12.723Z,92036.75
2022-07-31T19:18:49.314Z,92042.09
2022-07-31T19:21:42.086Z,92037.91
2022-07-31T19:24:16.467Z,92040.44
2022-07-31T19:26:49.587Z,92047.94
2022-07-31T19:29:22.711Z,92047.16
2022-07-31T19:31:55.068Z,92044.84
2022-07-31T19:34:31.979Z,92059.47
2022-07-31T19:37:08.572Z,92063.47
2022-07-31T19:39:42.260Z,92059.25
2022-07-31T19:42:14.622Z,92055.56
2022-07-31T19:44:47.655Z,92063.94
2022-07-31T19:47:21.502Z,92059.47
2022-07-31T19:49:53.954Z,92060.66
2022-07-31T19:52:27.082Z,92058.34
2022-07-31T19:54:59.504Z,92059.13
2022-07-31T19:57:31.913Z,92057.94
2022-07-31T20:00:05.938Z,92053.50
2022-07-31T20:02:39.438Z,92064.19
2022-07-31T20:05:12.743Z,92063.16
2022-07-31T20:07:45.837Z,92061.97
2022-07-31T20:10:18.328Z,92059.38
2022-07-31T20:12:50.759Z,92061.91
2022-07-31T20:15:23.282Z,92064.19
2022-07-31T20:17:56.795Z,92063.75
2022-07-31T20:20:29.223Z,92057.28
2022-07-31T20:23:02.241Z,92063.56
2022-07-31T20:25:34.657Z,92062.84
2022-07-31T20:28:07.019Z,92070.16
2022-07-31T20:30:39.454Z,92071.34
2022-07-31T20:33:13.418Z,92075.44
2022-07-31T20:35:48.102Z,92081.34
2022-07-31T20:38:23.659Z,92079.53
2022-07-31T20:40:56.292Z,92087.00
2022-07-31T20:43:29.921Z,92080.25
2022-07-31T20:46:02.360Z,92076.56
2022-07-31T20:48:38.071Z,92083.38
2022-07-31T20:51:18.419Z,92086.13
2022-07-31T20:53:51.991Z,92078.91
2022-07-31T20:56:24.626Z,92080.44
2022-07-31T20:58:57.375Z,92088.38
2022-07-31T21:01:29.906Z,92093.50
2022-07-31T21:04:02.346Z,92092.31
2022-07-31T21:06:36.346Z,92091.94
2022-07-31T21:09:09.650Z,92087.78
2022-07-31T21:11:42.079Z,92092.72
2022-07-31T21:14:14.431Z,92093.06
2022-07-31T21:16:46.875Z,92091.75
2022-07-31T21:19:19.642Z,92092.97
2022-07-31T21:21:52.227Z,92093.19
2022-07-31T21:24:25.908Z,92097.19
2022-07-31T21:26:59.854Z,92078.75
2022-07-31T21:29:32.841Z,92091.75
2022-07-31T21:32:06.651Z,92086.31
2022-07-31T21:34:39.807Z,92083.94
2022-07-31T21:37:16.032Z,92090.25
2022-07-31T21:39:49.855Z,92089.88
2022-07-31T21:42:22.831Z,92093.63
2022-07-31T21:44:57.815Z,92083.69
2022-07-31T21:47:52.849Z,92088.19
2022-07-31T21:50:29.126Z,92085.38
2022-07-31T21:53:01.892Z,92091.31
2022-07-31T21:55:35.070Z,92088.09
2022-07-31T21:58:08.767Z,92088.66
2022-07-31T22:00:41.557Z,92086.13
2022-07-31T22:03:14.123Z,92085.25
2022-07-31T22:06:13.075Z,92085.53
2022-07-31T22:08:45.476Z,92091.28
2022-07-31T22:11:18.550Z,92095.81
2022-07-31T22:13:51.140Z,92089.03
2022-07-31T22:16:23.562Z,92095.81
2022-07-31T22:18:56.321Z,92091.56
2022-07-31T22:21:29.079Z,92082.88
2022-07-31T22:24:02.131Z,92090.47
2022-07-31T22:26:35.672Z,92093.63
2022-07-31T22:29:08.510Z,92085.22
2022-07-31T22:31:49.759Z,92088.19
2022-07-31T22:34:36.997Z,92089.56
2022-07-31T22:37:10.506Z,92089.56
2022-07-31T22:39:45.279Z,92079.78
2022-07-31T22:42:19.031Z,92075.19
2022-07-31T22:44:51.567Z,92076.19
2022-07-31T22:47:26.447Z,92066.13
2022-07-31T22:49:59.119Z,92068.84
2022-07-31T22:52:35.203Z,92073.34
2022-07-31T22:55:10.625Z,92071.63
2022-07-31T22:57:44.315Z,92086.09
2022-07-31T23:00:17.741Z,92088.63
2022-07-31T23:02:50.211Z,92087.66
2022-07-31T23:05:22.759Z,92086.22
2022-07-31T23:07:55.182Z,92083.69
2022-07-31T23:10:27.586Z,92080.63
2022-07-31T23:13:00.726Z,92083.59
2022-07-31T23:15:33.119Z,92083.41
2022-07-31T23:18:05.543Z,92091.63
2022-07-31T23:20:37.964Z,92091.94
2022-07-31T23:23:10.390Z,92091.84
2022-07-31T23:25:42.812Z,92092.94
2022-07-31T23:28:15.945Z,92095.56
2022-07-31T23:30:48.322Z,92093.69
2022-07-31T23:33:20.753Z,92090.06
2022-07-31T23:35:53.212Z,92097.50
2022-07-31T23:38:25.779Z,92084.66
2022-07-31T23:40:58.143Z,92092.03
2022-07-31T23:43:31.352Z,92087.97
2022-07-31T23:46:04.397Z,92083.13
2022-07-31T23:48:39.454Z,92084.25
2022-07-31T23:51:11.878Z,92079.75
2022-07-31T23:53:44.291Z,92071.72
2022-07-31T23:56:19.719Z,92071.50
2022-07-31T23:58:53.010Z,92066.47
